createdAt,value
2022-12-04T00:01:17.372Z,37.87
2022-12-04T00:03:44.095Z,34.23
2022-12-04T00:06:13.149Z,37.97
2022-12-04T00:08:40.341Z,40.07
2022-12-04T00:11:08.741Z,32.70
2022-12-04T00:13:35.803Z,36.17
2022-12-04T00:16:07.914Z,34.63
2022-12-04T00:18:35.292Z,34.40
2022-12-04T00:21:06.598Z,34.83
2022-12-04T00:23:33.813Z,39.23
2022-12-04T00:26:08.607Z,33.27
2022-12-04T00:28:35.828Z,39.20
2022-12-04T00:31:06.058Z,32.97
2022-12-04T00:33:33.093Z,35.90
2022-12-04T00:36:00.653Z,37.00
2022-12-04T00:38:27.428Z,37.57
2022-12-04T00:40:54.138Z,33.23
2022-12-04T00:43:21.484Z,33.37
2022-12-04T00:45:48.071Z,37.53
2022-12-04T00:48:14.585Z,36.53
2022-12-04T00:50:41.413Z,36.20
2022-12-04T00:53:08.076Z,33.53
2022-12-04T00:55:38.114Z,33.53
2022-12-04T00:58:04.826Z,36.77
2022-12-04T01:00:32.064Z,35.23
2022-12-04T01:02:58.818Z,31.37
2022-12-04T01:05:25.385Z,33.43
2022-12-04T01:07:53.635Z,30.37
2022-12-04T01:10:20.881Z,36.90
2022-12-04T01:12:51.058Z,35.27
2022-12-04T01:15:17.946Z,28.23
2022-12-04T01:17:45.469Z,31.30
2022-12-04T01:20:13.831Z,28.70
2022-12-04T01:22:40.333Z,29.30
2022-12-04T01:25:07.710Z,29.07
2022-12-04T01:27:35.635Z,28.30
2022-12-04T01:30:02.516Z,30.77
2022-12-04T01:32:29.016Z,28.37
2022-12-04T01:34:56.412Z,30.40
2022-12-04T01:37:23.492Z,30.10
2022-12-04T01:39:50.051Z,27.17
2022-12-04T01:42:16.659Z,30.23
2022-12-04T01:44:44.872Z,25.90
2022-12-04T01:47:11.713Z,25.93
2022-12-04T01:49:46.732Z,29.77
2022-12-04T01:52:13.411Z,27.27
2022-12-04T01:54:46.151Z,26.57
2022-12-04T01:57:13.519Z,26.10
2022-12-04T02:00:08.731Z,30.13
2022-12-04T02:02:40.291Z,29.33
2022-12-04T02:05:09.714Z,26.80
2022-12-04T02:07:37.575Z,26.87
2022-12-04T02:10:08.488Z,27.13
2022-12-04T02:12:47.716Z,31.03
2022-12-04T02:15:17.147Z,28.37
2022-12-04T02:18:00.907Z,24.93
2022-12-04T02:20:59.669Z,28.63
2022-12-04T02:23:38.120Z,23.30
2022-12-04T02:26:07.391Z,19.77
2022-12-04T02:29:02.195Z,24.53
2022-12-04T02:31:33.941Z,23.60
2022-12-04T02:34:18.713Z,24.20
2022-12-04T02:36:53.731Z,27.80
2022-12-04T02:39:24.318Z,20.57
2022-12-04T02:41:57.889Z,25.40
2022-12-04T02:44:47.620Z,27.40
2022-12-04T02:47:14.899Z,29.70
2022-12-04T02:49:47.478Z,26.27
2022-12-04T02:52:17.958Z,25.70
2022-12-04T02:54:49.216Z,28.23
2022-12-04T02:57:20.394Z,24.70
2022-12-04T02:59:49.300Z,26.73
2022-12-04T03:02:23.384Z,24.60
2022-12-04T03:04:52.051Z,28.03
2022-12-04T03:07:23.700Z,30.13
2022-12-04T03:09:56.721Z,25.20
2022-12-04T03:12:30.617Z,26.93
2022-12-04T03:15:23.571Z,27.17
2022-12-04T03:18:02.661Z,29.33
2022-12-04T03:20:31.722Z,27.83
2022-12-04T03:23:13.491Z,31.63
2022-12-04T03:25:46.764Z,31.80
2022-12-04T03:28:29.083Z,27.77
2022-12-04T03:31:00.446Z,29.17
2022-12-04T03:33:32.043Z,29.97
2022-12-04T03:36:20.350Z,30.47
2022-12-04T03:38:53.942Z,26.60
2022-12-04T03:41:31.594Z,28.83
2022-12-04T03:44:14.840Z,25.90
2022-12-04T03:46:48.699Z,22.27
2022-12-04T03:49:37.002Z,23.87
2022-12-04T03:52:27.623Z,25.57
2022-12-04T03:54:58.625Z,28.90
2022-12-04T03:57:29.124Z,29.80
2022-12-04T04:00:02.946Z,29.83
2022-12-04T04:02:33.840Z,28.80
2022-12-04T04:05:01.726Z,29.87
2022-12-04T04:07:39.908Z,30.87
2022-12-04T04:10:12.638Z,33.20
2022-12-04T04:13:09.000Z,30.47
2022-12-04T04:15:56.766Z,33.00
2022-12-04T04:18:43.635Z,39.90
2022-12-04T04:21:29.723Z,30.20
2022-12-04T04:24:14.348Z,33.30
2022-12-04T04:26:46.204Z,25.07
2022-12-04T04:29:13.221Z,31.57
2022-12-04T04:31:46.256Z,31.33
2022-12-04T04:34:45.878Z,28.57
2022-12-04T04:37:50.036Z,29.87
2022-12-04T04:40:27.228Z,31.47
2022-12-04T04:43:03.791Z,27.90
2022-12-04T04:45:41.136Z,26.10
2022-12-04T04:48:14.652Z,30.50
2022-12-04T04:50:41.668Z,27.03
2022-12-04T04:53:12.450Z,26.03
2022-12-04T04:55:39.218Z,25.77
2022-12-04T04:58:10.345Z,29.20
2022-12-04T05:00:37.320Z,27.97
2022-12-04T05:03:03.943Z,26.33
2022-12-04T05:05:30.576Z,28.63
2022-12-04T05:07:57.144Z,28.17
2022-12-04T05:10:24.054Z,27.60
2022-12-04T05:12:50.529Z,28.47
2022-12-04T05:15:17.021Z,24.20
2022-12-04T05:17:43.465Z,28.27
2022-12-04T05:20:10.443Z,29.30
2022-12-04T05:22:38.470Z,25.50
2022-12-04T05:25:05.455Z,27.03
2022-12-04T05:27:32.742Z,24.10
2022-12-04T05:29:59.822Z,24.23
2022-12-04T05:32:27.776Z,23.87
2022-12-04T05:34:55.443Z,25.83
2022-12-04T05:37:22.666Z,26.60
2022-12-04T05:39:49.127Z,25.40
2022-12-04T05:42:15.700Z,24.67
2022-12-04T05:44:42.238Z,26.87
2022-12-04T05:47:09.224Z,23.90
2022-12-04T05:49:35.836Z,25.77
2022-12-04T05:52:03.490Z,26.90
2022-12-04T05:54:29.993Z,26.33
2022-12-04T05:56:57.546Z,25.80
2022-12-04T05:59:24.033Z,25.23
2022-12-04T06:01:50.611Z,26.57
2022-12-04T06:04:17.221Z,26.10
2022-12-04T06:06:43.829Z,25.70
2022-12-04T06:09:11.513Z,26.53
2022-12-04T06:11:39.710Z,23.67
2022-12-04T06:14:08.644Z,24.07
2022-12-04T06:16:38.713Z,25.93
2022-12-04T06:19:10.681Z,27.07
2022-12-04T06:21:38.958Z,23.27
2022-12-04T06:24:06.349Z,24.00
2022-12-04T06:26:33.113Z,24.73
2022-12-04T06:29:00.226Z,23.60
2022-12-04T06:31:28.968Z,25.60
2022-12-04T06:33:57.349Z,24.50
2022-12-04T06:36:24.401Z,21.03
2022-12-04T06:38:51.762Z,24.30
2022-12-04T06:41:20.439Z,24.40
2022-12-04T06:43:47.510Z,22.73
2022-12-04T06:46:20.108Z,22.90
2022-12-04T06:48:46.974Z,20.13
2022-12-04T06:51:17.391Z,22.30
2022-12-04T06:53:44.649Z,19.03
2022-12-04T06:56:14.341Z,22.70
2022-12-04T06:58:40.842Z,19.77
2022-12-04T07:01:09.789Z,21.67
2022-12-04T07:03:37.397Z,20.53
2022-12-04T07:06:34.101Z,19.40
2022-12-04T07:09:13.402Z,24.60
2022-12-04T07:11:40.705Z,21.00
2022-12-04T07:14:07.639Z,20.30
2022-12-04T07:16:40.248Z,19.47
2022-12-04T07:19:08.348Z,20.27
2022-12-04T07:21:34.891Z,24.07
2022-12-04T07:24:02.037Z,23.10
2022-12-04T07:26:29.865Z,24.50
2022-12-04T07:28:57.472Z,21.83
2022-12-04T07:31:25.371Z,21.63
2022-12-04T07:33:53.937Z,23.00
2022-12-04T07:36:22.106Z,20.70
2022-12-04T07:38:49.556Z,24.43
2022-12-04T07:41:16.564Z,23.90
2022-12-04T07:43:43.175Z,20.20
2022-12-04T07:46:13.828Z,27.23
2022-12-04T07:48:40.850Z,23.03
2022-12-04T07:51:10.880Z,21.33
2022-12-04T07:53:37.576Z,22.37
2022-12-04T07:56:05.125Z,21.87
2022-12-04T07:58:32.339Z,24.40
2022-12-04T08:01:25.265Z,24.60
2022-12-04T08:03:53.522Z,21.30
2022-12-04T08:06:22.822Z,23.03
2022-12-04T08:08:50.046Z,24.33
2022-12-04T08:11:22.476Z,26.40
2022-12-04T08:13:54.083Z,26.33
2022-12-04T08:16:20.586Z,30.03
2022-12-04T08:18:48.587Z,21.90
2022-12-04T08:21:20.575Z,26.67
2022-12-04T08:23:48.069Z,27.83
2022-12-04T08:26:14.806Z,25.60
2022-12-04T08:28:41.791Z,25.33
2022-12-04T08:31:10.612Z,27.40
2022-12-04T08:33:37.501Z,26.90
2022-12-04T08:36:11.978Z,27.23
2022-12-04T08:38:38.808Z,27.30
2022-12-04T08:41:06.996Z,24.30
2022-12-04T08:43:34.379Z,25.23
2022-12-04T08:46:02.982Z,22.73
2022-12-04T08:48:30.295Z,26.93
2022-12-04T08:50:57.223Z,22.73
2022-12-04T08:53:24.267Z,25.27
2022-12-04T08:55:51.485Z,23.63
2022-12-04T08:58:18.787Z,22.97
2022-12-04T09:00:45.765Z,21.13
2022-12-04T09:03:17.434Z,20.57
2022-12-04T09:05:45.901Z,22.37
2022-12-04T09:08:14.075Z,22.13
2022-12-04T09:10:41.225Z,29.50
2022-12-04T09:13:08.498Z,26.00
2022-12-04T09:15:38.861Z,25.00
2022-12-04T09:18:09.025Z,27.07
2022-12-04T09:20:36.042Z,22.03
2022-12-04T09:23:04.936Z,22.60
2022-12-04T09:25:35.650Z,22.90
2022-12-04T09:28:02.195Z,18.73
2022-12-04T09:30:28.627Z,18.97
2022-12-04T09:32:55.057Z,26.43
2022-12-04T09:35:21.547Z,21.20
2022-12-04T09:37:48.372Z,21.90
2022-12-04T09:40:25.583Z,21.90
2022-12-04T09:43:13.846Z,21.97
2022-12-04T09:45:47.866Z,22.77
2022-12-04T09:48:16.453Z,21.20
2022-12-04T09:50:44.585Z,25.93
2022-12-04T09:53:11.048Z,21.47
2022-12-04T09:55:43.447Z,20.83
2022-12-04T09:58:22.208Z,22.87
2022-12-04T10:00:51.726Z,24.23
2022-12-04T10:03:20.954Z,22.37
2022-12-04T10:06:14.877Z,23.50
2022-12-04T10:08:43.767Z,20.60
2022-12-04T10:11:32.957Z,19.90
2022-12-04T10:14:16.335Z,20.63
2022-12-04T10:16:55.051Z,20.80
2022-12-04T10:19:39.891Z,22.30
2022-12-04T10:22:41.879Z,23.93
2022-12-04T10:25:23.475Z,21.57
2022-12-04T10:27:58.250Z,20.80
2022-12-04T10:30:27.571Z,29.23
2022-12-04T10:33:11.561Z,20.07
2022-12-04T10:35:42.352Z,23.50
2022-12-04T10:38:35.918Z,23.83
2022-12-04T10:41:19.192Z,21.10
2022-12-04T10:43:48.813Z,20.73
2022-12-04T10:46:26.779Z,22.47
2022-12-04T10:49:06.866Z,22.40
2022-12-04T10:51:40.737Z,20.27
2022-12-04T10:54:16.493Z,20.67
2022-12-04T10:56:57.571Z,21.20
2022-12-04T10:59:24.505Z,18.70
2022-12-04T11:02:01.659Z,20.90
2022-12-04T11:04:34.230Z,18.27
2022-12-04T11:07:09.953Z,23.70
2022-12-04T11:09:36.995Z,22.00
2022-12-04T11:12:10.037Z,19.80
2022-12-04T11:14:36.869Z,18.67
2022-12-04T11:17:06.950Z,18.87
2022-12-04T11:19:36.313Z,23.53
2022-12-04T11:22:15.417Z,23.47
2022-12-04T11:24:42.775Z,22.57
2022-12-04T11:27:20.099Z,18.27
2022-12-04T11:29:47.443Z,16.97
2022-12-04T11:32:22.160Z,18.37
2022-12-04T11:34:51.757Z,17.03
2022-12-04T11:37:25.689Z,19.20
2022-12-04T11:39:53.999Z,15.83
2022-12-04T11:42:29.081Z,19.53
2022-12-04T11:45:01.341Z,14.83
2022-12-04T11:47:30.905Z,14.47
2022-12-04T11:50:19.764Z,14.93
2022-12-04T11:53:24.805Z,15.57
2022-12-04T11:56:22.711Z,17.60
2022-12-04T11:58:55.264Z,19.60
2022-12-04T12:01:47.428Z,14.00
2022-12-04T12:04:19.017Z,14.60
2022-12-04T12:06:57.845Z,16.93
2022-12-04T12:09:33.106Z,16.00
2022-12-04T12:12:10.480Z,16.97
2022-12-04T12:14:52.717Z,14.50
2022-12-04T12:17:36.820Z,15.70
2022-12-04T12:20:15.420Z,15.43
2022-12-04T12:23:00.886Z,15.27
2022-12-04T12:26:02.839Z,14.63
2022-12-04T12:29:02.216Z,13.70
2022-12-04T12:31:31.781Z,15.03
2022-12-04T12:34:03.717Z,16.53
2022-12-04T12:36:41.273Z,14.10
2022-12-04T12:39:19.058Z,14.23
2022-12-04T12:41:52.268Z,15.00
2022-12-04T12:44:27.351Z,15.27
2022-12-04T12:46:57.990Z,12.50
2022-12-04T12:49:31.744Z,17.50
2022-12-04T12:52:05.429Z,14.67
2022-12-04T12:54:46.435Z,14.57
2022-12-04T12:57:28.623Z,14.00
2022-12-04T13:00:23.338Z,17.30
2022-12-04T13:03:02.345Z,18.63
2022-12-04T13:05:38.202Z,13.63
2022-12-04T13:08:23.830Z,16.00
2022-12-04T13:10:58.909Z,14.07
2022-12-04T13:13:30.985Z,15.97
2022-12-04T13:16:05.043Z,15.90
2022-12-04T13:18:39.231Z,15.23
2022-12-04T13:21:06.952Z,12.90
2022-12-04T13:23:55.734Z,18.90
2022-12-04T13:26:31.375Z,13.83
2022-12-04T13:29:08.969Z,14.50
2022-12-04T13:32:11.038Z,20.67
2022-12-04T13:35:22.877Z,22.83
2022-12-04T13:38:26.585Z,22.23
2022-12-04T13:41:02.457Z,19.23
2022-12-04T13:43:36.502Z,18.27
2022-12-04T13:46:06.630Z,17.07
2022-12-04T13:48:41.610Z,19.10
2022-12-04T13:51:14.343Z,20.60
2022-12-04T13:53:42.714Z,25.47
2022-12-04T13:56:25.388Z,22.47
2022-12-04T13:59:05.895Z,21.60
2022-12-04T14:01:45.646Z,18.70
2022-12-04T14:04:39.657Z,15.10
2022-12-04T14:07:06.536Z,16.37
2022-12-04T14:09:40.532Z,20.50
2022-12-04T14:12:11.507Z,20.43
2022-12-04T14:14:59.211Z,18.83
2022-12-04T14:17:34.800Z,23.27
2022-12-04T14:20:07.832Z,19.63
2022-12-04T14:22:37.772Z,20.90
2022-12-04T14:25:13.220Z,19.40
2022-12-04T14:27:42.816Z,23.97
2022-12-04T14:30:37.353Z,20.93
2022-12-04T14:33:21.906Z,19.60
2022-12-04T14:36:01.822Z,21.17
2022-12-04T14:38:28.755Z,21.03
2022-12-04T14:40:58.042Z,23.23
2022-12-04T14:43:27.993Z,22.47
2022-12-04T14:45:58.819Z,22.33
2022-12-04T14:48:41.442Z,21.47
2022-12-04T14:51:32.771Z,21.03
2022-12-04T14:54:08.282Z,23.13
2022-12-04T14:56:47.851Z,22.70
2022-12-04T14:59:22.888Z,17.37
2022-12-04T15:01:51.339Z,24.57
2022-12-04T15:04:31.129Z,20.00
2022-12-04T15:07:00.365Z,24.83
2022-12-04T15:09:46.989Z,25.97
2022-12-04T15:12:34.623Z,29.00
2022-12-04T15:15:25.722Z,31.47
2022-12-04T15:18:07.602Z,26.20
2022-12-04T15:20:47.661Z,24.07
2022-12-04T15:23:16.548Z,26.80
2022-12-04T15:25:56.845Z,27.33
2022-12-04T15:28:30.534Z,29.00
2022-12-04T15:30:58.130Z,32.13
2022-12-04T15:33:30.890Z,28.83
2022-12-04T15:36:08.595Z,33.07
2022-12-04T15:38:36.380Z,29.70
2022-12-04T15:41:02.891Z,30.37
2022-12-04T15:43:40.030Z,37.40
2022-12-04T15:46:23.150Z,32.30
2022-12-04T15:48:49.711Z,28.83
2022-12-04T15:51:19.331Z,29.47
2022-12-04T15:53:46.891Z,29.60
2022-12-04T15:56:20.952Z,27.83
2022-12-04T15:58:59.831Z,27.10
2022-12-04T16:01:27.049Z,29.97
2022-12-04T16:03:55.557Z,30.10
2022-12-04T16:06:30.686Z,30.30
2022-12-04T16:09:22.173Z,27.70
2022-12-04T16:12:01.319Z,28.07
2022-12-04T16:14:27.951Z,29.37
2022-12-04T16:16:57.298Z,29.30
2022-12-04T16:19:32.857Z,31.30
2022-12-04T16:22:00.764Z,30.47
2022-12-04T16:24:27.423Z,29.23
2022-12-04T16:26:55.341Z,31.80
2022-12-04T16:29:23.054Z,34.10
2022-12-04T16:31:50.022Z,33.30
2022-12-04T16:34:17.480Z,36.93
2022-12-04T16:36:44.028Z,35.50
2022-12-04T16:39:10.579Z,34.43
2022-12-04T16:41:37.068Z,38.43
2022-12-04T16:44:03.753Z,37.00
2022-12-04T16:46:30.314Z,36.90
2022-12-04T16:48:57.116Z,35.97
2022-12-04T16:51:25.539Z,34.83
2022-12-04T16:53:53.133Z,31.57
2022-12-04T16:56:20.435Z,37.23
2022-12-04T16:58:47.198Z,32.30
2022-12-04T17:01:26.744Z,32.40
2022-12-04T17:03:53.829Z,29.00
2022-12-04T17:06:20.751Z,29.20
2022-12-04T17:08:47.714Z,30.10
2022-12-04T17:11:15.810Z,32.37
2022-12-04T17:13:42.457Z,28.83
2022-12-04T17:16:09.428Z,30.53
2022-12-04T17:18:36.263Z,31.67
2022-12-04T17:21:07.689Z,35.07
2022-12-04T17:23:34.359Z,35.53
2022-12-04T17:26:05.466Z,33.30
2022-12-04T17:28:32.907Z,32.63
2022-12-04T17:31:01.498Z,35.27
2022-12-04T17:33:28.115Z,33.23
2022-12-04T17:35:55.906Z,37.83
2022-12-04T17:38:22.407Z,34.33
2022-12-04T17:41:01.975Z,32.70
2022-12-04T17:43:29.786Z,36.17
2022-12-04T17:45:57.089Z,35.47
2022-12-04T17:48:24.972Z,34.53
2022-12-04T17:51:03.386Z,33.47
2022-12-04T17:53:29.933Z,29.50
2022-12-04T17:55:56.525Z,37.90
2022-12-04T17:58:23.422Z,32.57
2022-12-04T18:00:49.941Z,40.70
2022-12-04T18:03:16.507Z,34.13
2022-12-04T18:05:43.117Z,39.30
2022-12-04T18:08:09.698Z,33.10
2022-12-04T18:10:38.249Z,39.83
2022-12-04T18:13:04.767Z,36.73
2022-12-04T18:15:31.261Z,44.93
2022-12-04T18:17:58.109Z,46.67
2022-12-04T18:20:24.678Z,40.03
2022-12-04T18:22:51.239Z,44.07
2022-12-04T18:25:17.984Z,46.07
2022-12-04T18:27:44.486Z,38.13
2022-12-04T18:30:11.899Z,35.63
2022-12-04T18:32:38.423Z,35.70
2022-12-04T18:35:05.340Z,37.90
2022-12-04T18:37:34.012Z,36.00
2022-12-04T18:40:06.048Z,37.10
2022-12-04T18:42:33.237Z,34.80
2022-12-04T18:44:59.988Z,38.67
2022-12-04T18:47:26.911Z,34.50
2022-12-04T18:49:54.064Z,36.77
2022-12-04T18:52:20.798Z,36.50
2022-12-04T18:54:47.341Z,35.70
2022-12-04T18:57:13.975Z,37.97
2022-12-04T18:59:40.557Z,36.50
2022-12-04T19:02:08.395Z,34.63
2022-12-04T19:04:35.024Z,29.10
2022-12-04T19:07:02.117Z,38.37
2022-12-04T19:10:02.601Z,32.10
2022-12-04T19:12:16.437Z,33.40
2022-12-04T19:14:43.018Z,33.73
2022-12-04T19:17:09.604Z,30.20
2022-12-04T19:19:36.241Z,30.43
2022-12-04T19:22:03.225Z,28.37
2022-12-04T19:24:29.818Z,35.00
2022-12-04T19:29:23.505Z,35.30
2022-12-04T19:31:52.445Z,35.73
2022-12-04T19:34:22.821Z,33.07
2022-12-04T19:36:50.096Z,34.17
2022-12-04T19:39:16.574Z,27.00
2022-12-04T19:41:43.211Z,31.07
2022-12-04T19:44:40.211Z,24.97
2022-12-04T19:46:56.626Z,29.03
2022-12-04T19:49:23.210Z,34.90
2022-12-04T19:51:49.746Z,37.67
2022-12-04T19:54:16.783Z,33.87
2022-12-04T19:56:46.100Z,32.53
2022-12-04T19:59:12.836Z,31.50
2022-12-04T20:01:39.489Z,33.33
2022-12-04T20:04:07.779Z,36.43
2022-12-04T20:06:42.661Z,30.97
2022-12-04T20:09:12.638Z,29.17
2022-12-04T20:11:39.489Z,27.63
2022-12-04T20:14:07.100Z,31.40
2022-12-04T20:16:35.002Z,28.40
2022-12-04T20:19:03.274Z,36.73
2022-12-04T20:21:30.945Z,29.33
2022-12-04T20:24:01.909Z,28.43
2022-12-04T20:26:31.484Z,26.30
2022-12-04T20:28:59.271Z,31.60
2022-12-04T20:31:31.456Z,29.10
2022-12-04T20:33:59.920Z,28.03
2022-12-04T20:36:27.853Z,29.30
2022-12-04T20:38:58.019Z,29.53
2022-12-04T20:41:26.269Z,29.83
2022-12-04T20:43:52.841Z,30.50
2022-12-04T20:46:25.151Z,34.10
2022-12-04T20:48:53.443Z,28.00
2022-12-04T20:51:25.488Z,26.87
2022-12-04T20:53:53.205Z,27.50
2022-12-04T20:56:21.708Z,33.37
2022-12-04T20:58:48.399Z,31.83
2022-12-04T21:01:17.306Z,26.00
2022-12-04T21:03:44.741Z,30.50
2022-12-04T21:06:21.623Z,26.60
2022-12-04T21:08:59.261Z,28.70
2022-12-04T21:11:31.289Z,28.13
2022-12-04T21:14:17.860Z,24.33
2022-12-04T21:16:44.763Z,27.90
2022-12-04T21:19:13.023Z,30.37
2022-12-04T21:21:39.530Z,35.00
2022-12-04T21:24:07.811Z,30.27
2022-12-04T21:26:34.984Z,25.40
2022-12-04T21:29:02.315Z,27.20
2022-12-04T21:31:29.533Z,26.33
2022-12-04T21:33:56.907Z,28.33
2022-12-04T21:36:23.949Z,30.80
2022-12-04T21:38:50.424Z,26.10
2022-12-04T21:41:35.515Z,26.37
2022-12-04T21:44:09.476Z,25.73
2022-12-04T21:46:36.095Z,32.20
2022-12-04T21:49:02.671Z,29.10
2022-12-04T21:51:55.628Z,24.93
2022-12-04T21:54:15.980Z,27.33
2022-12-04T21:56:42.704Z,24.10
2022-12-04T21:59:09.552Z,27.20
2022-12-04T22:01:36.088Z,28.00
2022-12-04T22:04:02.833Z,23.27
2022-12-04T22:06:29.444Z,26.40
2022-12-04T22:08:56.004Z,28.93
2022-12-04T22:11:22.468Z,29.07
2022-12-04T22:13:49.052Z,29.20
2022-12-04T22:16:17.684Z,29.00
2022-12-04T22:18:45.174Z,28.07
2022-12-04T22:21:15.791Z,25.10
2022-12-04T22:23:42.633Z,24.63
2022-12-04T22:26:19.167Z,25.80
2022-12-04T22:28:45.997Z,27.37
2022-12-04T22:31:16.461Z,23.83
2022-12-04T22:33:46.302Z,28.70
2022-12-04T22:36:15.091Z,23.03
2022-12-04T22:39:06.017Z,25.20
2022-12-04T22:41:28.480Z,23.50
2022-12-04T22:43:55.044Z,22.67
2022-12-04T22:46:21.815Z,24.73
2022-12-04T22:48:48.417Z,23.33
2022-12-04T22:51:17.961Z,28.53
2022-12-04T22:53:46.762Z,23.97
2022-12-04T22:56:19.011Z,22.37
2022-12-04T22:58:45.778Z,24.50
2022-12-04T23:01:17.807Z,27.50
2022-12-04T23:03:45.271Z,26.80
2022-12-04T23:06:12.540Z,28.30
2022-12-04T23:08:40.074Z,27.30
2022-12-04T23:11:12.643Z,21.93
2022-12-04T23:13:39.776Z,28.90
2022-12-04T23:16:09.762Z,25.50
2022-12-04T23:18:37.296Z,26.20
2022-12-04T23:21:07.461Z,29.93
2022-12-04T23:23:35.588Z,26.83
2022-12-04T23:26:04.065Z,24.50
2022-12-04T23:28:30.691Z,27.77
2022-12-04T23:30:57.982Z,23.93
2022-12-04T23:33:25.775Z,28.30
2022-12-04T23:35:53.845Z,30.33
2022-12-04T23:38:21.858Z,26.87
2022-12-04T23:40:48.444Z,26.23
2022-12-04T23:43:15.795Z,26.40
2022-12-04T23:45:43.251Z,27.40
2022-12-04T23:48:10.247Z,29.37
2022-12-04T23:50:36.731Z,25.73
2022-12-04T23:53:03.496Z,25.00
2022-12-04T23:55:34.224Z,23.97
2022-12-04T23:58:02.157Z,27.30
